Time;durP1;ratioP1;P1;durP2;ratioP2;P2;SDS_P1;SDS_P2;PMS_P1;PMS_P2;Temp;Humidity;BMP_temperature;BMP_pressure;BME280_temperature;BME280_humidity;BME280_pressure;Samples;Min_cycle;Max_cycle;Signal;HPM_P1;HPM_P2
2023/02/07 00:03:21;;;;;;;1.08;0.68;;;;;;;;;;21088388;28;20130;-64
2023/02/07 00:13:25;;;;;;;5.70;0.93;;;;;;;;;;21071385;28;20481;-68
2023/02/07 00:23:43;;;;;;;0.95;0.70;;;;;;;;;;21087229;28;20056;-68
2023/02/07 00:34:06;;;;;;;1.58;0.80;;;;;;;;;;21087352;28;20440;-65
2023/02/07 00:44:27;;;;;;;3.28;0.88;;;;;;;;;;21085946;28;20493;-66
2023/02/07 00:54:36;;;;;;;1.48;0.70;;;;;;;;;;21085652;28;20048;-66
2023/02/07 01:04:41;;;;;;;1.60;0.90;;;;;;;;;;21085077;28;20048;-65
2023/02/07 01:14:46;;;;;;;2.30;0.75;;;;;;;;;;21083097;28;20055;-65
2023/02/07 01:24:49;;;;;;;1.67;0.80;;;;;;;;;;21083127;28;20066;-65
2023/02/07 01:34:53;;;;;;;2.00;0.68;;;;;;;;;;21082206;28;20102;-67
2023/02/07 01:44:59;;;;;;;1.80;0.70;;;;;;;;;;21081994;28;20059;-68
2023/02/07 01:55:03;;;;;;;1.48;0.63;;;;;;;;;;21088530;28;20409;-67
2023/02/07 02:05:05;;;;;;;1.15;0.80;;;;;;;;;;21063494;28;20047;-67
2023/02/07 02:15:15;;;;;;;1.73;0.85;;;;;;;;;;21080606;28;20040;-67
2023/02/07 02:25:18;;;;;;;1.55;0.90;;;;;;;;;;21080977;28;20044;-67
2023/02/07 02:35:35;;;;;;;1.55;0.70;;;;;;;;;;21079371;28;20049;-65
2023/02/07 02:45:52;;;;;;;1.83;0.75;;;;;;;;;;21078632;28;20519;-66
2023/02/07 02:55:57;;;;;;;1.60;0.70;;;;;;;;;;21095324;28;20058;-66
2023/02/07 03:06:13;;;;;;;1.27;0.80;;;;;;;;;;21094975;28;20050;-66
2023/02/07 03:16:25;;;;;;;2.30;0.75;;;;;;;;;;21094319;28;20506;-65
2023/02/07 03:26:38;;;;;;;1.60;0.90;;;;;;;;;;21093216;28;20406;-64
2023/02/07 03:36:56;;;;;;;4.50;1.08;;;;;;;;;;21091626;28;20063;-65
2023/02/07 03:47:00;;;;;;;4.47;1.25;;;;;;;;;;21091313;28;20058;-65
2023/02/07 03:57:03;;;;;;;2.42;1.10;;;;;;;;;;21089072;28;20145;-68
2023/02/07 04:07:06;;;;;;;2.10;0.90;;;;;;;;;;21089617;28;20090;-66
2023/02/07 04:17:10;;;;;;;1.77;1.00;;;;;;;;;;21090858;28;20066;-65
2023/02/07 04:27:19;;;;;;;5.63;1.45;;;;;;;;;;21086537;28;20044;-67
2023/02/07 04:37:26;;;;;;;2.80;1.20;;;;;;;;;;21086519;28;20502;-62
2023/02/07 04:47:28;;;;;;;3.22;1.40;;;;;;;;;;21066911;28;20048;-66
2023/02/07 04:57:31;;;;;;;2.25;1.27;;;;;;;;;;21085377;28;20048;-67
2023/02/07 05:07:32;;;;;;;3.50;1.75;;;;;;;;;;21083554;28;20142;-63
2023/02/07 05:17:34;;;;;;;2.72;1.40;;;;;;;;;;21082199;28;20083;-65
2023/02/07 05:27:37;;;;;;;2.50;1.20;;;;;;;;;;21082004;28;20101;-67
2023/02/07 05:37:39;;;;;;;4.40;1.48;;;;;;;;;;21080559;28;20052;-66
2023/02/07 05:47:41;;;;;;;3.28;1.73;;;;;;;;;;21081744;28;20093;-67
2023/02/07 05:57:44;;;;;;;2.45;1.50;;;;;;;;;;21080112;28;20084;-65
2023/02/07 06:07:46;;;;;;;3.45;1.60;;;;;;;;;;21081315;28;20044;-67
2023/02/07 06:17:47;;;;;;;3.45;1.58;;;;;;;;;;21080112;28;20051;-66
2023/02/07 06:27:49;;;;;;;3.78;1.50;;;;;;;;;;21092746;28;20117;-64
2023/02/07 06:37:51;;;;;;;4.85;1.77;;;;;;;;;;21096215;28;20122;-67
2023/02/07 06:47:53;;;;;;;4.60;1.95;;;;;;;;;;21095981;28;20044;-67
2023/02/07 06:57:55;;;;;;;4.72;2.03;;;;;;;;;;21095202;28;20052;-64
2023/02/07 07:07:57;;;;;;;6.95;2.28;;;;;;;;;;21094459;28;20051;-65
2023/02/07 07:17:59;;;;;;;5.65;2.75;;;;;;;;;;21098497;28;20055;-66
2023/02/07 07:28:00;;;;;;;8.25;3.22;;;;;;;;;;21093873;28;20058;-65
2023/02/07 07:38:02;;;;;;;8.73;3.45;;;;;;;;;;21090342;28;20544;-64
2023/02/07 07:48:04;;;;;;;7.95;3.15;;;;;;;;;;21091121;28;20090;-65
2023/02/07 07:58:06;;;;;;;7.78;3.28;;;;;;;;;;21090606;28;20056;-63
2023/02/07 08:08:07;;;;;;;4.78;2.85;;;;;;;;;;21090221;28;20583;-64
2023/02/07 08:18:09;;;;;;;8.85;3.25;;;;;;;;;;21088279;28;20109;-63
2023/02/07 08:28:11;;;;;;;7.93;3.15;;;;;;;;;;21087416;28;20048;-66
2023/02/07 08:38:13;;;;;;;10.02;3.42;;;;;;;;;;21086536;28;20413;-66
2023/02/07 08:48:15;;;;;;;9.82;4.13;;;;;;;;;;21085607;28;20406;-67
2023/02/07 08:58:17;;;;;;;15.45;3.83;;;;;;;;;;21085264;28;20070;-63
2023/02/07 09:08:18;;;;;;;16.85;4.50;;;;;;;;;;21083053;28;20048;-65
2023/02/07 09:18:20;;;;;;;10.57;3.75;;;;;;;;;;21082367;28;20056;-63
2023/02/07 09:28:22;;;;;;;5.47;2.75;;;;;;;;;;21081966;28;20507;-64
2023/02/07 09:38:24;;;;;;;6.15;2.70;;;;;;;;;;21081208;28;20405;-66
2023/02/07 09:48:36;;;;;;;7.70;2.72;;;;;;;;;;21081231;28;20514;-63
2023/02/07 09:58:44;;;;;;;7.28;2.75;;;;;;;;;;21061926;28;20047;-64
2023/02/07 10:08:49;;;;;;;7.53;3.70;;;;;;;;;;21079087;28;20054;-69
2023/02/07 10:19:03;;;;;;;6.70;2.60;;;;;;;;;;21080608;28;20103;-68
2023/02/07 10:29:11;;;;;;;8.20;2.45;;;;;;;;;;21112872;28;20056;-69
2023/02/07 10:39:20;;;;;;;8.50;2.72;;;;;;;;;;21052901;28;20106;-72
2023/02/07 10:49:24;;;;;;;4.73;2.10;;;;;;;;;;20994860;28;20455;-71
2023/02/07 10:59:26;;;;;;;4.63;2.80;;;;;;;;;;20993184;28;20063;-71
2023/02/07 11:09:28;;;;;;;7.47;2.63;;;;;;;;;;20999821;28;20052;-69
2023/02/07 11:19:31;;;;;;;6.28;2.88;;;;;;;;;;21008292;28;20057;-69
2023/02/07 11:29:48;;;;;;;4.47;2.05;;;;;;;;;;21007356;28;20055;-71
2023/02/07 11:39:51;;;;;;;6.80;2.47;;;;;;;;;;21007887;28;20388;-68
2023/02/07 11:50:00;;;;;;;7.28;2.72;;;;;;;;;;21007784;28;20409;-68
2023/02/07 12:00:25;;;;;;;9.17;3.17;;;;;;;;;;21005202;28;20044;-70
2023/02/07 12:10:32;;;;;;;2.60;1.50;;;;;;;;;;21004458;28;20502;-67
2023/02/07 12:20:36;;;;;;;3.08;1.58;;;;;;;;;;21002671;28;20051;-67
2023/02/07 12:30:44;;;;;;;6.93;3.28;;;;;;;;;;21003473;28;20048;-69
2023/02/07 12:41:11;;;;;;;3.53;1.60;;;;;;;;;;21002672;28;20056;-68
2023/02/07 12:51:32;;;;;;;5.43;1.20;;;;;;;;;;21002819;28;20052;-69
2023/02/07 13:01:42;;;;;;;5.45;1.90;;;;;;;;;;21000081;28;20048;-68
2023/02/07 13:11:49;;;;;;;5.53;1.50;;;;;;;;;;21000936;28;20055;-70
2023/02/07 13:21:59;;;;;;;2.05;1.35;;;;;;;;;;21000652;28;20053;-68
2023/02/07 13:32:03;;;;;;;3.72;1.92;;;;;;;;;;20998354;28;20090;-65
2023/02/07 13:42:05;;;;;;;3.17;1.73;;;;;;;;;;21047846;28;20130;-66
2023/02/07 13:52:10;;;;;;;3.58;1.48;;;;;;;;;;21080769;28;20044;-67
2023/02/07 14:02:15;;;;;;;2.90;1.70;;;;;;;;;;21081244;28;20046;-66
2023/02/07 14:12:17;;;;;;;6.10;2.10;;;;;;;;;;21080074;28;20528;-68
2023/02/07 14:22:21;;;;;;;6.88;1.83;;;;;;;;;;21080400;28;20504;-67
2023/02/07 14:32:28;;;;;;;3.70;1.58;;;;;;;;;;21084125;28;20405;-68
2023/02/07 14:42:29;;;;;;;5.18;1.75;;;;;;;;;;21080172;28;20070;-66
2023/02/07 14:52:33;;;;;;;4.07;1.85;;;;;;;;;;21093397;28;20052;-70
2023/02/07 15:02:39;;;;;;;2.72;1.60;;;;;;;;;;21093593;28;20052;-70
2023/02/07 15:12:42;;;;;;;4.45;1.95;;;;;;;;;;21093462;28;20048;-68
2023/02/07 15:22:49;;;;;;;5.18;1.50;;;;;;;;;;21092035;28;20052;-71
2023/02/07 15:32:51;;;;;;;2.47;1.50;;;;;;;;;;21091530;28;20044;-71
2023/02/07 15:42:57;;;;;;;3.45;1.38;;;;;;;;;;21090690;28;20059;-70
2023/02/07 15:53:09;;;;;;;6.30;2.78;;;;;;;;;;21092735;28;20401;-67
2023/02/07 16:03:18;;;;;;;4.22;1.63;;;;;;;;;;21088755;28;20044;-69
2023/02/07 16:13:21;;;;;;;3.63;1.65;;;;;;;;;;21087806;28;20142;-69
2023/02/07 16:23:23;;;;;;;4.95;1.27;;;;;;;;;;21086688;28;20135;-68
2023/02/07 16:33:25;;;;;;;3.47;1.08;;;;;;;;;;21086568;28;20052;-70
2023/02/07 16:43:30;;;;;;;2.58;1.15;;;;;;;;;;21066673;28;20060;-70
2023/02/07 16:53:32;;;;;;;6.88;1.65;;;;;;;;;;21085869;28;20052;-67
2023/02/07 17:03:34;;;;;;;4.40;1.65;;;;;;;;;;21085296;28;20044;-66
2023/02/07 17:13:36;;;;;;;3.88;2.15;;;;;;;;;;21082859;28;20135;-68
2023/02/07 17:23:38;;;;;;;7.40;2.53;;;;;;;;;;21081885;28;20051;-64
2023/02/07 17:33:41;;;;;;;4.82;2.03;;;;;;;;;;21080915;28;20059;-71
2023/02/07 17:43:43;;;;;;;5.85;2.30;;;;;;;;;;21079967;28;20059;-70
2023/02/07 17:53:45;;;;;;;5.55;2.08;;;;;;;;;;21081209;28;20054;-69
2023/02/07 18:03:48;;;;;;;4.00;2.08;;;;;;;;;;21079969;28;20040;-67
2023/02/07 18:13:50;;;;;;;4.88;2.50;;;;;;;;;;21077647;28;20108;-70
2023/02/07 18:23:52;;;;;;;2.50;1.35;;;;;;;;;;21079466;28;20473;-70
2023/02/07 18:33:54;;;;;;;3.80;1.38;;;;;;;;;;21076762;28;20052;-70
2023/02/07 18:43:56;;;;;;;3.05;1.13;;;;;;;;;;21076857;28;20113;-62
2023/02/07 18:53:58;;;;;;;3.33;1.90;;;;;;;;;;21077294;28;20058;-63
2023/02/07 19:04:01;;;;;;;3.38;2.00;;;;;;;;;;21077658;28;20113;-65
2023/02/07 19:14:03;;;;;;;1.88;1.15;;;;;;;;;;21076813;28;20549;-63
2023/02/07 19:24:06;;;;;;;1.60;1.10;;;;;;;;;;21076068;28;20040;-64
2023/02/07 19:34:08;;;;;;;2.30;0.80;;;;;;;;;;21085822;28;20484;-62
2023/02/07 19:44:10;;;;;;;2.72;1.40;;;;;;;;;;21090102;28;20056;-61
2023/02/07 19:54:13;;;;;;;4.32;2.60;;;;;;;;;;21091095;28;20052;-65
2023/02/07 20:04:14;;;;;;;2.70;1.40;;;;;;;;;;21090861;28;20048;-62
2023/02/07 20:14:16;;;;;;;4.10;2.10;;;;;;;;;;21087864;28;20135;-63
2023/02/07 20:24:18;;;;;;;4.28;1.90;;;;;;;;;;21087850;28;20044;-65
2023/02/07 20:34:20;;;;;;;4.72;1.50;;;;;;;;;;21087668;28;20079;-62
2023/02/07 20:44:25;;;;;;;10.55;4.50;;;;;;;;;;21084711;28;20048;-65
2023/02/07 20:54:28;;;;;;;39.15;19.08;;;;;;;;;;21086870;28;20510;-65
2023/02/07 21:04:30;;;;;;;22.23;11.20;;;;;;;;;;21084984;28;20040;-63
2023/02/07 21:14:33;;;;;;;5.10;3.22;;;;;;;;;;21085110;28;20497;-65
2023/02/07 21:24:35;;;;;;;12.75;6.18;;;;;;;;;;21083991;28;20044;-65
2023/02/07 21:34:37;;;;;;;4.50;2.42;;;;;;;;;;21082002;28;20058;-65
2023/02/07 21:44:39;;;;;;;4.40;2.05;;;;;;;;;;21081808;28;20044;-63
2023/02/07 21:54:41;;;;;;;2.95;1.33;;;;;;;;;;21080773;28;20044;-63
2023/02/07 22:04:43;;;;;;;2.80;1.33;;;;;;;;;;21081778;28;20505;-61
2023/02/07 22:14:45;;;;;;;2.15;1.20;;;;;;;;;;21079602;28;20101;-62
2023/02/07 22:24:48;;;;;;;1.73;1.30;;;;;;;;;;21080421;28;20048;-66
2023/02/07 22:34:50;;;;;;;2.08;1.08;;;;;;;;;;21079686;28;20051;-60
2023/02/07 22:44:52;;;;;;;2.72;1.50;;;;;;;;;;21079433;28;20142;-63
2023/02/07 22:54:54;;;;;;;4.78;2.78;;;;;;;;;;21081226;28;20048;-63
2023/02/07 23:04:56;;;;;;;6.13;2.90;;;;;;;;;;21079259;28;20085;-64
2023/02/07 23:14:59;;;;;;;6.75;2.97;;;;;;;;;;21089989;28;20079;-61
2023/02/07 23:25:01;;;;;;;7.43;3.53;;;;;;;;;;21092506;28;20047;-66
2023/02/07 23:35:03;;;;;;;6.22;3.20;;;;;;;;;;21092578;28;20048;-65
2023/02/07 23:45:05;;;;;;;6.28;3.17;;;;;;;;;;21090865;28;20056;-67
2023/02/07 23:55:07;;;;;;;5.72;2.92;;;;;;;;;;21089746;28;20087;-63
